createdAt,value
2022-11-22T00:00:49.224Z,16.17
2022-11-22T00:03:18.055Z,16.40
2022-11-22T00:05:45.786Z,10.97
2022-11-22T00:08:13.577Z,14.60
2022-11-22T00:10:42.728Z,14.37
2022-11-22T00:13:10.568Z,10.97
2022-11-22T00:15:38.324Z,14.20
2022-11-22T00:18:06.096Z,10.37
2022-11-22T00:20:34.480Z,14.87
2022-11-22T00:23:02.208Z,11.53
2022-11-22T00:25:30.030Z,17.57
2022-11-22T00:27:59.118Z,13.90
2022-11-22T00:30:26.820Z,12.43
2022-11-22T00:32:54.579Z,12.80
2022-11-22T00:35:22.270Z,13.33
2022-11-22T00:37:49.977Z,12.97
2022-11-22T00:40:17.823Z,12.63
2022-11-22T00:42:45.533Z,15.13
2022-11-22T00:45:14.615Z,14.47
2022-11-22T00:47:42.344Z,15.13
2022-11-22T00:50:10.866Z,13.50
2022-11-22T00:52:38.611Z,14.53
2022-11-22T00:55:07.159Z,14.40
2022-11-22T00:57:34.922Z,16.87
2022-11-22T01:00:02.692Z,15.20
2022-11-22T01:02:31.845Z,14.60
2022-11-22T01:04:59.533Z,16.27
2022-11-22T01:07:27.370Z,18.00
2022-11-22T01:09:55.101Z,16.40
2022-11-22T01:12:22.979Z,16.40
2022-11-22T01:14:50.774Z,17.90
2022-11-22T01:17:18.695Z,13.13
2022-11-22T01:19:48.036Z,19.67
2022-11-22T01:22:15.757Z,15.87
2022-11-22T01:24:43.642Z,15.87
2022-11-22T01:27:11.387Z,13.40
2022-11-22T01:29:39.139Z,14.83
2022-11-22T01:32:07.002Z,16.37
2022-11-22T01:34:34.977Z,14.53
2022-11-22T01:37:04.069Z,14.50
2022-11-22T01:39:32.343Z,13.27
2022-11-22T01:42:00.242Z,14.37
2022-11-22T01:44:30.618Z,18.93
2022-11-22T01:47:00.628Z,10.53
2022-11-22T01:49:32.191Z,13.87
2022-11-22T01:52:06.045Z,11.37
2022-11-22T01:54:37.088Z,10.43
2022-11-22T01:57:09.219Z,14.10
2022-11-22T01:59:41.467Z,14.20
2022-11-22T02:02:09.427Z,11.87
2022-11-22T02:04:38.740Z,13.17
2022-11-22T02:07:12.156Z,12.87
2022-11-22T02:09:41.821Z,14.73
2022-11-22T02:12:11.000Z,10.17
2022-11-22T02:14:39.866Z,12.87
2022-11-22T02:17:07.625Z,13.37
2022-11-22T02:19:42.831Z,15.73
2022-11-22T02:22:24.784Z,15.57
2022-11-22T02:24:57.273Z,15.53
2022-11-22T02:27:27.485Z,15.97
2022-11-22T02:29:55.212Z,17.67
2022-11-22T02:32:23.037Z,11.33
2022-11-22T02:34:52.104Z,12.23
2022-11-22T02:37:24.025Z,11.33
2022-11-22T02:39:57.112Z,15.03
2022-11-22T02:42:27.212Z,12.10
2022-11-22T02:44:54.959Z,16.00
2022-11-22T02:47:22.714Z,16.53
2022-11-22T02:49:50.456Z,14.93
2022-11-22T02:52:18.840Z,14.70
2022-11-22T02:54:46.602Z,18.67
2022-11-22T02:57:14.493Z,19.23
2022-11-22T02:59:43.647Z,15.03
2022-11-22T03:02:11.389Z,20.47
2022-11-22T03:04:39.601Z,19.77
2022-11-22T03:07:07.687Z,20.37
2022-11-22T03:09:35.484Z,18.40
2022-11-22T03:12:03.283Z,13.70
2022-11-22T03:14:31.050Z,17.00
2022-11-22T03:17:00.110Z,17.57
2022-11-22T03:19:27.984Z,18.50
2022-11-22T03:21:55.820Z,15.53
2022-11-22T03:24:23.609Z,19.33
2022-11-22T03:26:51.592Z,18.50
2022-11-22T03:29:19.474Z,19.83
2022-11-22T03:31:47.373Z,19.93
2022-11-22T03:34:17.515Z,20.30
2022-11-22T03:36:45.274Z,22.57
2022-11-22T03:39:12.979Z,20.27
2022-11-22T03:41:40.736Z,18.23
2022-11-22T03:44:08.514Z,15.57
2022-11-22T03:46:36.656Z,18.33
2022-11-22T03:49:04.477Z,22.03
2022-11-22T03:51:33.618Z,20.07
2022-11-22T03:54:01.428Z,22.27
2022-11-22T03:56:30.890Z,22.17
2022-11-22T03:58:58.784Z,25.80
2022-11-22T04:01:26.636Z,22.23
2022-11-22T04:03:54.590Z,23.00
2022-11-22T04:06:22.440Z,22.83
2022-11-22T04:08:51.723Z,26.17
2022-11-22T04:11:19.477Z,21.60
2022-11-22T04:14:04.500Z,21.73
2022-11-22T04:16:32.260Z,25.60
2022-11-22T04:18:59.945Z,20.13
2022-11-22T04:21:35.724Z,24.73
2022-11-22T04:24:24.936Z,26.13
2022-11-22T04:26:53.440Z,25.53
2022-11-22T04:29:22.093Z,22.83
2022-11-22T04:32:08.127Z,20.10
2022-11-22T04:34:38.717Z,23.87
2022-11-22T04:37:06.913Z,33.63
2022-11-22T04:39:36.267Z,29.17
2022-11-22T04:42:21.640Z,22.13
2022-11-22T04:44:49.405Z,24.03
2022-11-22T04:47:33.175Z,24.57
2022-11-22T04:50:01.129Z,23.93
2022-11-22T04:52:46.615Z,22.67
2022-11-22T04:55:15.889Z,23.70
2022-11-22T04:57:43.633Z,24.87
2022-11-22T05:00:12.333Z,17.20
2022-11-22T05:02:40.070Z,26.87
2022-11-22T05:05:08.510Z,16.43
2022-11-22T05:07:36.302Z,20.67
2022-11-22T05:10:04.115Z,23.17
2022-11-22T05:12:33.343Z,26.13
2022-11-22T05:15:01.075Z,28.10
2022-11-22T05:17:28.895Z,20.93
2022-11-22T05:19:56.624Z,24.03
2022-11-22T05:22:45.065Z,27.40
2022-11-22T05:25:11.875Z,26.10
2022-11-22T05:27:40.958Z,19.27
2022-11-22T05:30:09.446Z,22.13
2022-11-22T05:32:37.252Z,21.00
2022-11-22T05:35:05.831Z,21.60
2022-11-22T05:37:33.542Z,18.07
2022-11-22T05:40:01.309Z,24.23
2022-11-22T05:42:29.051Z,21.53
2022-11-22T05:44:58.107Z,25.10
2022-11-22T05:47:25.881Z,27.27
2022-11-22T05:49:53.624Z,24.83
2022-11-22T05:52:21.414Z,25.20
2022-11-22T05:54:49.137Z,26.73
2022-11-22T05:57:16.857Z,27.40
2022-11-22T05:59:44.763Z,22.53
2022-11-22T06:02:13.898Z,22.87
2022-11-22T06:04:41.871Z,26.33
2022-11-22T06:07:10.500Z,26.83
2022-11-22T06:09:38.866Z,21.10
2022-11-22T06:12:07.145Z,24.63
2022-11-22T06:14:39.944Z,26.03
2022-11-22T06:17:10.695Z,25.87
2022-11-22T06:19:39.778Z,24.87
2022-11-22T06:22:07.505Z,25.90
2022-11-22T06:24:35.216Z,31.80
2022-11-22T06:27:03.036Z,24.97
2022-11-22T06:29:31.136Z,23.07
2022-11-22T06:32:03.499Z,24.27
2022-11-22T06:34:31.896Z,25.40
2022-11-22T06:37:00.986Z,28.10
2022-11-22T06:39:29.056Z,29.93
2022-11-22T06:41:57.066Z,29.30
2022-11-22T06:44:24.850Z,30.33
2022-11-22T06:46:52.565Z,33.03
2022-11-22T06:49:20.258Z,28.33
2022-11-22T06:51:48.019Z,28.17
2022-11-22T06:54:17.114Z,31.90
2022-11-22T06:56:44.807Z,27.53
2022-11-22T06:59:12.598Z,30.63
2022-11-22T07:01:40.445Z,30.00
2022-11-22T07:04:08.194Z,30.80
2022-11-22T07:06:38.585Z,32.53
2022-11-22T07:09:08.410Z,34.13
2022-11-22T07:11:38.314Z,30.00
2022-11-22T07:14:08.864Z,31.83
2022-11-22T07:16:38.122Z,33.73
2022-11-22T07:19:07.068Z,28.50
2022-11-22T07:21:37.155Z,30.67
2022-11-22T07:24:07.231Z,29.97
2022-11-22T07:26:35.050Z,31.23
2022-11-22T07:29:04.532Z,21.50
2022-11-22T07:31:32.360Z,27.03
2022-11-22T07:34:00.161Z,33.40
2022-11-22T07:36:29.524Z,24.97
2022-11-22T07:38:57.520Z,28.90
2022-11-22T07:41:25.418Z,27.27
2022-11-22T07:43:54.013Z,26.50
2022-11-22T07:46:26.132Z,29.77
2022-11-22T07:48:53.964Z,27.67
2022-11-22T07:51:21.685Z,30.67
2022-11-22T07:53:49.413Z,27.63
2022-11-22T07:56:17.924Z,28.37
2022-11-22T07:58:45.687Z,27.03
2022-11-22T08:01:16.590Z,27.53
2022-11-22T08:03:46.553Z,27.30
2022-11-22T08:06:15.418Z,24.90
2022-11-22T08:08:44.683Z,29.27
2022-11-22T08:11:12.772Z,26.23
2022-11-22T08:13:40.953Z,25.43
2022-11-22T08:16:11.279Z,29.60
2022-11-22T08:18:39.619Z,25.53
2022-11-22T08:21:10.983Z,26.50
2022-11-22T08:23:39.971Z,28.67
2022-11-22T08:26:09.383Z,25.00
2022-11-22T08:28:37.220Z,30.43
2022-11-22T08:31:07.199Z,26.03
2022-11-22T08:33:35.540Z,22.80
2022-11-22T08:36:03.671Z,25.10
2022-11-22T08:38:32.850Z,23.47
2022-11-22T08:41:00.548Z,26.03
2022-11-22T08:43:28.747Z,26.93
2022-11-22T08:45:58.504Z,23.93
2022-11-22T08:48:27.462Z,25.67
2022-11-22T08:50:56.883Z,80.63
2022-11-22T08:53:25.493Z,28.63
2022-11-22T08:55:56.018Z,23.03
2022-11-22T08:58:24.063Z,25.50
2022-11-22T09:00:51.826Z,24.73
2022-11-22T09:03:19.634Z,24.23
2022-11-22T09:08:40.450Z,22.90
2022-11-22T09:11:16.461Z,27.60
2022-11-22T09:13:44.567Z,27.50
2022-11-22T09:16:14.500Z,30.00
2022-11-22T09:18:42.759Z,24.90
2022-11-22T09:21:15.750Z,21.73
2022-11-22T09:23:44.560Z,26.33
2022-11-22T09:26:15.465Z,28.83
2022-11-22T09:28:43.773Z,28.07
2022-11-22T09:31:13.818Z,26.53
2022-11-22T09:33:45.056Z,28.83
2022-11-22T09:36:14.703Z,24.00
2022-11-22T09:38:42.526Z,26.70
2022-11-22T09:41:29.607Z,30.73
2022-11-22T09:44:06.468Z,27.23
2022-11-22T09:46:43.520Z,26.43
2022-11-22T09:49:28.016Z,27.37
2022-11-22T09:52:04.184Z,24.53
2022-11-22T09:54:39.932Z,27.43
2022-11-22T09:57:16.495Z,26.53
2022-11-22T09:59:48.462Z,24.97
2022-11-22T10:02:22.443Z,29.00
2022-11-22T10:04:56.409Z,22.47
2022-11-22T10:07:29.802Z,22.00
2022-11-22T10:10:04.107Z,20.93
2022-11-22T10:12:41.244Z,24.00
2022-11-22T10:15:17.155Z,24.73
2022-11-22T10:17:53.748Z,25.03
2022-11-22T10:20:23.070Z,28.07
2022-11-22T10:22:51.128Z,26.77
2022-11-22T10:25:20.729Z,21.03
2022-11-22T10:28:00.425Z,33.80
2022-11-22T10:30:35.180Z,21.40
2022-11-22T10:33:14.147Z,23.30
2022-11-22T10:36:01.808Z,23.50
2022-11-22T10:38:57.424Z,23.13
2022-11-22T10:41:39.675Z,25.70
2022-11-22T10:44:20.155Z,17.07
2022-11-22T10:46:57.161Z,30.03
2022-11-22T10:49:46.664Z,20.30
2022-11-22T10:52:23.165Z,22.87
2022-11-22T10:54:58.809Z,27.77
2022-11-22T10:57:33.991Z,23.87
2022-11-22T11:00:17.895Z,27.53
2022-11-22T11:03:04.010Z,27.97
2022-11-22T11:05:37.307Z,23.30
2022-11-22T11:08:36.882Z,24.07
2022-11-22T11:10:54.137Z,26.43
2022-11-22T11:13:26.144Z,24.10
2022-11-22T11:15:58.933Z,26.83
2022-11-22T11:18:31.977Z,25.83
2022-11-22T11:20:59.823Z,29.93
2022-11-22T11:23:27.561Z,36.23
2022-11-22T11:25:55.375Z,31.30
2022-11-22T11:28:27.264Z,30.53
2022-11-22T11:30:59.705Z,33.03
2022-11-22T11:33:29.764Z,34.87
2022-11-22T11:36:03.300Z,35.37
2022-11-22T11:38:34.681Z,33.97
2022-11-22T11:41:26.166Z,38.90
2022-11-22T11:43:55.227Z,30.63
2022-11-22T11:46:26.303Z,32.50
2022-11-22T11:48:55.538Z,35.77
2022-11-22T11:51:26.717Z,39.80
2022-11-22T11:53:59.889Z,30.80
2022-11-22T11:56:34.009Z,31.90
2022-11-22T11:59:07.941Z,40.03
2022-11-22T12:01:39.181Z,29.23
2022-11-22T12:04:16.024Z,35.00
2022-11-22T12:06:57.582Z,37.70
2022-11-22T12:09:36.897Z,43.27
2022-11-22T12:12:16.225Z,44.40
2022-11-22T12:15:10.228Z,37.43
2022-11-22T12:17:47.721Z,40.60
2022-11-22T12:20:21.201Z,35.53
2022-11-22T12:23:00.103Z,42.87
2022-11-22T12:25:34.192Z,37.23
2022-11-22T12:28:12.138Z,45.70
2022-11-22T12:30:42.318Z,42.77
2022-11-22T12:33:19.075Z,48.90
2022-11-22T12:35:47.290Z,39.03
2022-11-22T12:38:19.715Z,41.77
2022-11-22T12:40:50.846Z,41.83
2022-11-22T12:43:24.750Z,38.20
2022-11-22T12:45:56.145Z,41.80
2022-11-22T12:48:31.431Z,40.07
2022-11-22T12:51:04.634Z,56.37
2022-11-22T12:53:36.699Z,47.23
2022-11-22T12:56:12.366Z,29.83
2022-11-22T12:58:48.699Z,45.50
2022-11-22T13:01:21.742Z,37.53
2022-11-22T13:03:57.596Z,40.50
2022-11-22T13:06:29.253Z,39.00
2022-11-22T13:09:04.067Z,48.03
2022-11-22T13:11:35.852Z,42.67
2022-11-22T13:14:08.602Z,40.27
2022-11-22T13:16:36.477Z,45.17
2022-11-22T13:19:07.359Z,41.03
2022-11-22T13:21:47.747Z,42.00
2022-11-22T13:24:27.060Z,39.90
2022-11-22T13:27:07.987Z,40.00
2022-11-22T13:29:37.246Z,44.90
2022-11-22T13:32:08.932Z,43.60
2022-11-22T13:34:41.215Z,44.50
2022-11-22T13:37:13.201Z,46.90
2022-11-22T13:39:47.094Z,48.37
2022-11-22T13:42:19.596Z,50.60
2022-11-22T13:45:07.208Z,44.03
2022-11-22T13:47:43.425Z,44.53
2022-11-22T13:50:54.522Z,44.53
2022-11-22T13:53:27.067Z,43.30
2022-11-22T13:55:54.825Z,45.67
2022-11-22T13:58:51.934Z,52.93
2022-11-22T14:01:56.964Z,45.90
2022-11-22T14:04:44.376Z,45.57
2022-11-22T14:07:34.166Z,47.97
2022-11-22T14:10:05.317Z,47.53
2022-11-22T14:13:04.771Z,44.67
2022-11-22T14:15:52.260Z,43.40
2022-11-22T14:18:49.485Z,44.63
2022-11-22T14:21:40.133Z,46.30
2022-11-22T14:24:18.198Z,52.37
2022-11-22T14:26:55.898Z,40.07
2022-11-22T14:30:02.380Z,38.60
2022-11-22T14:32:51.872Z,44.33
2022-11-22T14:35:29.585Z,40.07
2022-11-22T14:38:40.258Z,40.27
2022-11-22T14:41:53.955Z,44.20
2022-11-22T14:44:33.014Z,42.13
2022-11-22T14:47:06.555Z,48.53
2022-11-22T14:49:43.189Z,41.83
2022-11-22T14:52:21.156Z,44.47
2022-11-22T14:54:51.314Z,38.13
2022-11-22T14:57:23.667Z,35.30
2022-11-22T15:00:08.652Z,38.40
2022-11-22T15:03:13.649Z,50.40
2022-11-22T15:09:14.562Z,47.80
2022-11-22T15:09:25.591Z,32.40
2022-11-22T15:11:59.673Z,44.97
2022-11-22T15:58:06.058Z,49.67
2022-11-22T16:00:33.928Z,43.60
2022-11-22T16:03:04.250Z,53.00
2022-11-22T16:06:05.725Z,45.80
2022-11-22T16:08:27.863Z,54.67
2022-11-22T16:11:00.227Z,42.50
2022-11-22T16:13:29.773Z,42.73
2022-11-22T16:16:17.565Z,47.77
2022-11-22T16:18:46.264Z,51.60
2022-11-22T16:21:27.735Z,47.23
2022-11-22T16:24:18.626Z,51.33
2022-11-22T16:26:56.078Z,38.60
2022-11-22T16:29:29.041Z,56.87
2022-11-22T16:32:01.605Z,41.20
2022-11-22T16:34:29.385Z,52.73
2022-11-22T16:36:57.200Z,54.70
2022-11-22T16:39:26.322Z,54.50
2022-11-22T16:41:55.184Z,50.33
2022-11-22T16:44:25.438Z,50.27
2022-11-22T16:46:56.305Z,58.23
2022-11-22T16:49:24.067Z,47.40
2022-11-22T16:51:52.704Z,57.33
2022-11-22T16:54:23.996Z,50.37
2022-11-22T16:56:53.253Z,54.60
2022-11-22T16:59:21.225Z,40.73
2022-11-22T17:01:49.687Z,46.60
2022-11-22T17:04:22.946Z,50.67
2022-11-22T17:06:51.146Z,51.47
2022-11-22T17:09:19.012Z,44.37
2022-11-22T17:11:47.349Z,57.70
2022-11-22T17:14:17.899Z,47.43
2022-11-22T17:16:46.784Z,46.97
2022-11-22T17:19:30.267Z,57.10
2022-11-22T17:22:02.358Z,40.07
2022-11-22T17:24:30.301Z,50.53
2022-11-22T17:26:58.274Z,55.17
2022-11-22T17:32:15.185Z,46.03
2022-11-22T17:34:42.905Z,47.53
2022-11-22T17:37:13.077Z,55.53
2022-11-22T17:39:41.371Z,42.97
2022-11-22T17:42:09.243Z,34.03
2022-11-22T17:44:38.315Z,52.50
2022-11-22T17:47:06.221Z,48.80
2022-11-22T17:49:34.263Z,48.50
2022-11-22T17:52:02.311Z,44.83
2022-11-22T17:54:30.111Z,48.23
2022-11-22T17:56:57.916Z,53.97
2022-11-22T17:59:25.956Z,53.00
2022-11-22T18:01:55.122Z,55.77
2022-11-22T18:04:23.082Z,54.13
2022-11-22T18:06:50.853Z,44.00
2022-11-22T18:09:18.554Z,45.20
2022-11-22T18:11:46.341Z,45.67
2022-11-22T18:14:14.260Z,45.30
2022-11-22T18:16:46.205Z,44.80
2022-11-22T18:19:15.870Z,58.30
2022-11-22T18:21:43.692Z,52.30
2022-11-22T18:24:11.597Z,47.77
2022-11-22T18:26:40.574Z,32.73
2022-11-22T18:29:39.035Z,47.37
2022-11-22T18:31:57.917Z,42.47
2022-11-22T18:34:32.003Z,40.33
2022-11-22T18:37:03.562Z,54.57
2022-11-22T18:39:34.540Z,55.83
2022-11-22T18:42:46.648Z,41.40
2022-11-22T18:45:14.393Z,52.07
2022-11-22T18:47:42.176Z,43.47
2022-11-22T18:50:12.906Z,53.50
2022-11-22T18:52:40.979Z,52.83
2022-11-22T18:55:15.713Z,39.77
2022-11-22T18:57:43.588Z,59.97
2022-11-22T19:00:12.968Z,47.57
2022-11-22T19:02:40.684Z,49.00
2022-11-22T19:05:08.751Z,54.47
2022-11-22T19:07:42.202Z,44.93
2022-11-22T19:10:11.041Z,45.93
2022-11-22T19:12:38.756Z,50.67
2022-11-22T19:15:07.453Z,55.97
2022-11-22T19:17:35.323Z,60.63
2022-11-22T19:20:03.192Z,60.73
2022-11-22T19:22:30.894Z,49.90
2022-11-22T19:24:59.984Z,53.73
2022-11-22T19:27:27.836Z,56.27
2022-11-22T19:29:55.598Z,58.87
2022-11-22T19:32:23.386Z,37.63
2022-11-22T19:34:52.048Z,55.87
2022-11-22T19:37:19.979Z,52.97
2022-11-22T19:39:48.781Z,42.47
2022-11-22T19:42:18.031Z,70.10
2022-11-22T19:44:47.857Z,61.90
2022-11-22T19:47:17.029Z,67.90
2022-11-22T19:49:44.774Z,42.80
2022-11-22T19:52:17.292Z,56.83
2022-11-22T19:54:45.599Z,61.60
2022-11-22T19:57:13.331Z,63.00
2022-11-22T19:59:42.483Z,67.30
2022-11-22T20:02:10.815Z,71.20
2022-11-22T20:04:38.566Z,70.13
2022-11-22T20:07:06.367Z,80.97
2022-11-22T20:09:34.189Z,71.77
2022-11-22T20:12:01.984Z,60.40
2022-11-22T20:14:30.001Z,72.40
2022-11-22T20:16:59.394Z,63.17
2022-11-22T20:19:37.375Z,68.00
2022-11-22T20:22:05.127Z,62.40
2022-11-22T20:24:33.441Z,59.33
2022-11-22T20:27:02.514Z,64.40
2022-11-22T20:29:30.249Z,75.20
2022-11-22T20:32:01.646Z,59.37
2022-11-22T20:34:30.282Z,74.00
2022-11-22T20:36:58.231Z,59.77
2022-11-22T20:39:26.015Z,67.37
2022-11-22T20:42:11.843Z,61.60
2022-11-22T20:44:41.482Z,73.43
2022-11-22T20:47:10.612Z,63.13
2022-11-22T20:49:43.929Z,62.30
2022-11-22T20:52:13.264Z,72.87
2022-11-22T20:54:41.025Z,84.87
2022-11-22T20:57:11.319Z,60.00
2022-11-22T20:59:41.208Z,63.17
2022-11-22T21:02:11.368Z,58.33
2022-11-22T21:04:39.096Z,77.60
2022-11-22T21:07:06.976Z,76.63
2022-11-22T21:09:34.752Z,82.40
2022-11-22T21:12:02.531Z,77.23
2022-11-22T21:14:30.475Z,64.33
2022-11-22T21:17:11.056Z,67.93
2022-11-22T21:19:47.580Z,64.37
2022-11-22T21:22:15.375Z,84.40
2022-11-22T21:24:43.122Z,70.77
2022-11-22T21:27:10.923Z,75.03
2022-11-22T21:29:38.660Z,64.63
2022-11-22T21:32:06.903Z,53.50
2022-11-22T21:34:34.635Z,57.73
2022-11-22T21:37:03.754Z,78.50
2022-11-22T21:39:33.975Z,70.87
2022-11-22T21:42:01.762Z,80.60
2022-11-22T21:44:29.772Z,75.03
2022-11-22T21:46:57.617Z,78.00
2022-11-22T21:49:25.318Z,55.40
2022-11-22T21:51:53.168Z,77.17
2022-11-22T21:54:22.639Z,68.77
2022-11-22T21:56:50.348Z,51.70
2022-11-22T21:59:18.053Z,68.37
2022-11-22T22:01:45.791Z,69.90
2022-11-22T22:04:13.790Z,70.33
2022-11-22T22:06:45.947Z,75.80
2022-11-22T22:09:14.010Z,79.80
2022-11-22T22:11:45.575Z,69.03
2022-11-22T22:14:13.287Z,72.73
2022-11-22T22:16:41.065Z,81.87
2022-11-22T22:19:09.636Z,64.13
2022-11-22T22:21:37.468Z,79.07
2022-11-22T22:24:05.672Z,84.50
2022-11-22T22:26:33.437Z,76.00
2022-11-22T22:29:02.518Z,83.77
2022-11-22T22:31:30.249Z,75.57
2022-11-22T22:33:58.680Z,71.63
2022-11-22T22:36:28.132Z,74.07
2022-11-22T22:38:56.152Z,79.47
2022-11-22T22:41:23.902Z,78.53
2022-11-22T22:43:52.163Z,80.43
2022-11-22T22:46:23.196Z,76.47
2022-11-22T22:48:51.893Z,70.20
2022-11-22T22:51:20.925Z,58.27
2022-11-22T22:53:49.113Z,80.63
2022-11-22T22:56:20.075Z,62.07
2022-11-22T22:58:47.991Z,65.53
2022-11-22T23:01:17.774Z,72.40
2022-11-22T23:03:50.169Z,65.90
2022-11-22T23:06:18.995Z,77.73
2022-11-22T23:08:48.492Z,72.60
2022-11-22T23:11:18.197Z,59.90
2022-11-22T23:13:45.990Z,67.83
2022-11-22T23:16:15.332Z,60.50
2022-11-22T23:18:45.171Z,55.83
2022-11-22T23:21:15.829Z,73.47
2022-11-22T23:23:43.752Z,75.27
2022-11-22T23:26:13.489Z,57.13
2022-11-22T23:28:41.305Z,67.50
2022-11-22T23:31:12.105Z,75.53
2022-11-22T23:33:39.852Z,63.03
2022-11-22T23:36:10.495Z,71.17
2022-11-22T23:38:40.154Z,70.37
2022-11-22T23:41:08.062Z,65.90
2022-11-22T23:43:35.789Z,54.97
2022-11-22T23:46:03.740Z,73.20
2022-11-22T23:48:31.581Z,57.47
2022-11-22T23:51:03.543Z,55.57
2022-11-22T23:53:31.312Z,52.50
2022-11-22T23:56:06.617Z,63.30
2022-11-22T23:58:34.419Z,54.67
